Aviation Digital Data Service (ADDS)

Output produced by METARs form (1812 UTC 14 August 2018)
found at http://www.aviationweather.gov/adds/metars/
 
EDAC 141750Z 22007KT 9999 FEW049 BKN070 21/14 Q1014
TAF EDAC 141700Z 1418/1503 25007KT CAVOK
       
EDMA 141750Z 32008KT CAVOK 21/11 Q1017
TAF EDMA 141700Z 1418/1503 29008KT CAVOK 
     BECMG 1418/1420 23003KT
       
EDVE 141750Z 27006KT CAVOK 20/15 Q1013
TAF EDVE 141700Z 1418/1421 27007KT 9999 SCT025
       
EDDW 141750Z 30015KT 9999 FEW025 BKN280 20/14 Q1013 NOSIG
TAF EDDW 141700Z 1418/1518 28015G25KT 9999 SCT025 
     BECMG 1419/1421 24006KT
       
ETSB 141720Z 32009KT 9999 BKN030 BKN060 18/14 Q1018 BLU BLU TEMPO WHT
TAF ETSB 141620Z 1417/1502 29010KT 9999 NSW SCT020 BKN040 
     TEMPO 1417/1421 28010G20KT 6000 -SHRA FEW010 BKN020 
     BECMG 1421/1423 30004KT 5000 BR SCT010 BKN015 BY ETGL
       
ETHB 141720Z 30010KT 9999 FEW040 BKN048 22/12 Q1014 BLU FCST CANCEL
TAF AMD ETHB 141632Z 1414/1423 28010KT 9999 NSW SCT012 BKN030 
     TEMPO 1414/1416 28015G25KT 4000 SHRA BKN010 BKN025CB CANCEL 1700
       
ETHC 141720Z 25004KT 9999 FEW028 SCT060 21/14 Q1012 BLU+
TAF AMD ETHC 141607Z 1414/1423 25010KT 9999 NSW SCT025 SCT070 
     TEMPO 1414/1418 27015G25KT 4000 SHRA FEW010 BKN020CB CANCEL 1630
       
ETND 141320Z 29012KT 9999 FEW015TCU SCT026 BKN052 20/15 Q1012 BLU FCST CANCEL
TAF AMD ETND 141300Z 1411/1420 24012KT 8000 NSW SCT008 BKN025 
     TEMPO 1411/1417 27015G25KT 4000 SHRA BKN008 BKN015TCU CANCEL 1300Z BY ETGL
       
EDLW 141750Z 30005KT 230V340 9999 FEW046 SCT053 BKN074 22/13 Q1015
TAF EDLW 141700Z 1418/1518 29008KT 9999 BKN045 
     BECMG 1421/1424 23006KT
       
EDDC 141750Z 28013KT 250V310 9999 SCT040 BKN055 BKN100 21/13 Q1014 NOSIG
TAF COR EDDC 141700Z 1418/1518 28007KT 9999 SCT045
       
EDDL 141750Z 28007KT 250V310 9999 VCSH FEW032 FEW037TCU BKN050 21/15 Q1016 NOSIG
TAF EDDL 141700Z 1418/1524 29010KT 9999 SCT045 
     BECMG 1420/1423 26004KT 
     BECMG 1503/1506 20005KT 
     BECMG 1510/1512 25010KT 
     BECMG 1518/1521 18004KT
       
EDDE 141750Z 30012KT CAVOK 20/11 Q1015 NOSIG
TAF EDDE 141700Z 1418/1518 25008KT CAVOK
       
ETHS 141720Z 29008KT 9999 SCT040 SCT090 18/16 Q1013 BLU+
TAF AMD ETHS 141435Z 1414/1423 27012KT 9999 NSW SCT025 SCT050 
     TEMPO 1414/1418 28015G25KT 4000 SHRA SCT015 BKN020CB CANCEL 1500
       
EDFH 141750Z 28009KT 250V310 9999 SCT025CB 19/14 Q1018
TAF EDFH 141700Z 1418/1518 28012KT CAVOK 
     BECMG 1418/1421 28005KT
       
EDDF 141750Z 27007KT 220V300 9999 VCSH FEW040CB SCT070 23/14 Q1016 NOSIG
TAF EDDF 141700Z 1418/1524 28010KT CAVOK 
     BECMG 1419/1422 25005KT 
     BECMG 1518/1521 VRB03KT
       
EDNY 141750Z 15004KT CAVOK 21/15 Q1017
TAF EDNY 141700Z 1418/1518 VRB03KT 9999 FEW050 
     BECMG 1509/1511 23005KT 
     BECMG 1517/1518 VRB02KT
       
ETHF 141720Z 29009KT 9999 FEW045 BKN065 22/12 Q1015 BLU
TAF AMD ETHF 141450Z 1414/1423 29008KT 9999 NSW SCT040 CANCEL 1500
       
ETNG 141750Z 29009KT 9999 FEW026 SCT045 BKN070 21/16 Q1017
TAF ETNG 141700Z 1418/1509 27010KT 9999 FEW020 BKN060 
     BECMG 1418/1420 21005KT 
     PROB30 
     TEMPO 1505/1508 BKN012 
     BECMG 1508/1509 24008KT BKN020
       
ETIC 141756Z AUTO 27004KT 9999 OVC100 20/13 A3001 RMK AO2 SLP154 T01950130 10229 20195 TSNO $
TAF ETIC 141404Z 1414/1520 29012KT 9999 FEW040 BKN070 QNH2997INS 
     BECMG 1420/1421 VRB06KT 9999 BKN030 QNH3006INS 
     BECMG 1501/1502 VRB06KT 8000 BR BKN015 QNH3011INS 
     BECMG 1507/1508 VRB06KT 9999 NSW BKN021 QNH3012INS 
     BECMG 1511/1512 VRB06KT 8000 -SHRA BKN021 QNH3013INS 
     BECMG 1514/1515 29012KT 9999 NSW SCT035 QNH3011INS TX24/1514Z TN12/1504Z
       
EDDH 141750Z 28012KT 250V310 9999 FEW020TCU BKN055 20/15 Q1011 NOSIG
TAF EDDH 141700Z 1418/1524 29014KT 9999 SCT025 
     BECMG 1418/1421 28009KT 
     PROB30 
     TEMPO 1419/1422 BKN014 
     BECMG 1515/1517 27004KT
       
EDHI 141750Z 28010KT 9999 -SHRA SCT020CB BKN026 20/17 Q1011
TAF EDHI 141700Z 1418/1421 28013KT 9999 BKN035 
     PROB30 
     TEMPO 1419/1421 BKN010
       
EDDV 141750Z 28014KT 9999 FEW045 BKN055 21/12 Q1013 TEMPO 27015G25KT
TAF EDDV 141700Z 1418/1518 28012KT 9999 SCT025 
     BECMG 1418/1420 26007KT
       
EDQM 141750Z 22007KT CAVOK 17/12 Q1016
TAF EDQM 141700Z 1418/1503 26008KT CAVOK 
     BECMG 1418/1420 26003KT
       
ETIH 141756Z AUTO 30004KT 9999 FEW075 SCT100 20/14 A3004 RMK AO2 SLP163 T02000139 10234 20200 52010 $
ETNH 141720Z 28012KT 9999 FEW022TCU SCT070 20/16 Q1011 BLU+
TAF ETNH 141600Z 1417/1505 28013G25KT 9999 NSW SCT070 SCT330 
     BECMG 1418/1420 26008KT 9999 NSW SCT030 BKN070 BY ETGL
       
ETSH 141720Z 25009KT 9999 FEW038TCU SCT090 19/17 Q1012 BLU+
TAF AMD ETSH 141433Z 1414/1423 26010KT 9999 NSW SCT040 BKN080 
     TEMPO 1414/1417 27015G25KT 6000 SHRA BKN030TCU CANCEL 1500
       
ETSI 141720Z AUTO 33009KT 6000 // ////// 23/11 Q1016 ///
TAF AMD ETSI 141404Z 1414/1423 30010G20KT 9999 NSW FEW050 SCT130 
     BECMG 1418/1420 27005KT 9999 NSW SCT130 CANCEL 1500
       
EDSB 141750Z VRB02KT 9999 FEW042 OVC075 24/14 Q1017
TAF EDSB 141700Z 1418/1518 28005KT CAVOK 
     BECMG 1418/1420 VRB03KT
       
EDVK 141750Z 30011KT 9999 FEW044 SCT060 21/12 Q1015
TAF EDVK 141700Z 1418/1503 30012KT 9999 SCT045 
     BECMG 1420/1423 27005KT
       
EDHK 141550Z 28013KT 9999 VCSH SCT031TCU 23/15 Q1009
EDDK 141750Z 27007KT 9999 FEW028TCU BKN055 19/16 Q1016 NOSIG
TAF EDDK 141700Z 1418/1524 29010KT 9999 BKN040 
     BECMG 1421/1424 VRB03KT 
     BECMG 1508/1510 26006KT 
     BECMG 1518/1520 13003KT
       
ETNL 141720Z 28008KT 9999 VCSH FEW008 FEW040CB BKN090 18/17 Q1010 BLU
TAF AMD ETNL 141610Z 1416/1423 24012G22KT 9999 NSW SCT020 BKN040 
     TEMPO 1416/1418 26012G25KT 5000 SHRA SCT010 BKN015TCU 
     PROB30 1416/1418 28015G25KT 2000 TSRA BKN010CB CANCEL 1700Z BY ETGL
       
EDTL 141750Z 35009KT CAVOK 23/14 Q1018
TAF EDTL 141700Z 1418/1424 33006KT CAVOK
       
ETHL 141720Z 33004KT 9999 FEW050 BKN080 22/09 Q1017 BLU
TAF AMD ETHL 141426Z 1414/1423 29007KT 9999 NSW SCT050 SCT080 CANCEL 1500
       
ETSL 141720Z 31006KT 9999 FEW050TCU SCT090 22/09 Q1017 BLU+
TAF AMD ETSL 141410Z 1414/1423 25008KT 9999 NSW SCT040 SCT060 
     TEMPO 1414/1418 24010KT 9000 NSW BKN040 CANCEL 1420 BY ETGL
       
EDDP 141750Z 28017KT 9999 -SHRA BKN040CB 21/13 Q1014 TEMPO 28015G25KT
TAF COR EDDP 141722Z 1418/1518 27015G25KT CAVOK 
     BECMG 1418/1420 24008KT
       
EDHL 141750Z 25005KT 220V300 9999 FEW027 SCT080 21/15 Q1011
TAF EDHL 141700Z 1418/1421 27007KT 9999 SCT025
       
EDFM 141750Z 28008KT 240V320 CAVOK 24/12 Q1016
TAF EDFM 141700Z 1418/1421 28010KT CAVOK 
     BECMG 1418/1421 28005KT
       
EDLN 141750Z 29007KT 250V310 9999 BKN042 21/16 Q1016
TAF EDLN 141700Z 1418/1503 28007KT 9999 BKN040 
     BECMG 1421/1424 22003KT
       
EDDM 141750Z 31006KT CAVOK 22/11 Q1017 NOSIG
TAF EDDM 141700Z 1418/1524 27006KT 9999 FEW040 
     BECMG 1517/1519 VRB02KT
       
EDDG 141750Z 30008KT 260V340 CAVOK 21/12 Q1015 NOSIG
TAF EDDG 141700Z 1418/1518 29010KT 9999 FEW045 
     BECMG 1419/1423 22004KT 
     PROB30 
     TEMPO 1503/1507 BKN013 
     BECMG 1509/1511 24010KT
       
ETSN 141720Z 29009KT 9999 FEW055 BKN100 22/11 Q1016 BLU
TAF ETSN 141620Z 1417/1502 28010KT 9999 NSW FEW050 BKN080 BY ETGL
       
ETHN 141720Z 24004KT 9999 -SHRA SCT038 BKN070 20/12 Q1017 BLU BLU
TAF ETHN 141637Z 1417/1502 28010KT 9999 NSW SCT030 SCT070 
     TEMPO 1417/1422 28015G25KT 8000 -SHRA BKN030
       
ETMN 141720Z 30018KT 9999 SCT012 SCT020 BKN031 18/16 Q1013 BLU BLU
TAF ETMN 141620Z 1417/1502 28015G25KT 9999 NSW SCT015 SCT030 
     PROB30 1417/1502 29020G30KT 5000 SHRA SCT008 BKN012CB CANCEL 1850
       
ETNN 141720Z 29007KT 9999 FEW030 BKN050 BKN080 21/15 Q1017 BLU
TAF AMD ETNN 141508Z 1415/1423 27010KT 9999 NSW FEW020 BKN040 BY ETGL
       
EDDN 141750Z 28006KT 250V310 9999 FEW050CB SCT060 BKN090 20/14 Q1017 NOSIG
TAF EDDN 141700Z 1418/1518 28007KT 9999 SCT040 
     BECMG 1420/1422 VRB02KT 
     BECMG 1508/1510 29007KT
       
EDMO 141650Z 21009KT 9999 VCSH FEW041TCU SCT052 20/13 Q1017
TAF EDMO 141700Z 1418/1503 26008KT CAVOK 
     BECMG 1418/1420 23003KT
       
EDLP 141750Z 29006KT 250V320 CAVOK 21/12 Q1015
TAF EDLP 141700Z 1418/1518 26006KT 9999 BKN045
       
ETAR 141756Z AUTO 23005KT 9999 CLR 22/14 A3005 RMK AO2 SLP172 T02180142 10241 20218 52004 $
TAF ETAR 141802Z 1418/1524 27006KT 9999 SCT050 QNH3004INS 
     BECMG 1423/1424 VRB06KT 6000 BR BKN020 QNH3008INS 
     BECMG 1505/1506 27006KT 9999 NSW SCT025 BKN050 QNH3014INS 
     BECMG 1508/1509 27009KT 9999 BKN030 QNH3012INS 
     BECMG 1518/1519 VRB06KT 9999 SCT050 QNH3009INS TX24/1515Z TN12/1503Z
       
EDDR 141750Z 30004KT 270V340 9999 FEW025 21/14 Q1018 NOSIG
TAF EDDR 141700Z 1418/1518 31008KT 9999 SCT045 
     BECMG 1419/1422 VRB03KT 
     BECMG 1508/1511 26005KT
       
ETNS 141720Z AUTO 28011KT 4200 // ////// 21/14 Q1010 ///
EDDB 141750Z 26009KT 9999 FEW039 20/17 Q1011 NOSIG
TAF COR EDDB 141700Z 1418/1518 27010KT 9999 SCT040
       
EDTY 141750Z 26005KT 230V290 CAVOK 21/14 Q1017
TAF EDTY 141700Z 1418/1503 28005KT CAVOK
       
EDGS 141750Z 27008KT 240V300 9999 FEW019 SCT042 BKN060 17/16 Q1017
TAF EDGS 141700Z 1418/1503 29010KT 9999 FEW010 BKN030 
     BECMG 1421/1424 BKN010
       
ETAD 141756Z AUTO 26009KT 9999 OVC080 20/14 A3006 RMK AO2 SLP162 T02000139 10212 20186 51006 $
TAF AMD ETAD 141316Z 1413/1517 24010G15KT 9999 SCT025 BKN050 QNH3001INS 
     BECMG 1418/1419 VRB06KT 9999 BKN020 QNH3003INS 
     BECMG 1423/1424 VRB06KT 6000 BR BKN015 QNH3007INS 
     TEMPO 1500/1504 SCT008 BKN010 
     BECMG 1506/1507 23006KT 9999 NSW SCT015 BKN030 QNH3009INS TX23/1415Z TN12/1504Z
       
EDDS 141750Z 30008KT 270V330 CAVOK 22/12 Q1017 NOSIG
TAF EDDS 141700Z 1418/1518 31010KT CAVOK 
     BECMG 1419/1422 VRB03KT 
     BECMG 1509/1512 34005KT
       
EDDT 141750Z 26012KT 9999 SCT023TCU SCT095 21/16 Q1011 NOSIG
TAF COR EDDT 141700Z 1418/1518 28008KT 9999 SCT040
       
EDXW 141650Z 30015KT 9000 SHRA FEW009CB SCT016 BKN066 19/17 Q1010 RERA
TAF EDXW 141700Z 1418/1421 29013KT 9999 SCT020 
     PROB30 
     TEMPO 1418/1421 30015G25KT SHRA SCT012CB
       
ETOU 141757Z AUTO 33013G20KT 9999 -DZ FEW041 BKN050 OVC065 22/15 A3002 RMK AO2 DZB57 SLP164 $
TAF AMD ETOU 141808Z 1418/1517 28012KT 9999 SCT030 QNH2994INS 
     TEMPO 1418/1419 33012G18KT 
     BECMG 1418/1419 VRB06KT 9999 BKN025 QNH3006INS 
     BECMG 1507/1508 27006KT 9999 FEW015 SCT030 QNH3000INS TX24/1515Z TN12/1504Z
       
ETNT 141720Z 29015KT 9999 SCT020 SCT280 19/14 Q1014 BLU+
TAF ETNT 141600Z 1417/1502 27010KT 9999 NSW SCT015 BKN045 BY ETGL
       
ETNW 141720Z AUTO 28017KT 9999 // ////// 22/12 Q1013 ///
TAF ETNW 141600Z 1417/1517 28014G24KT 9999 NSW SCT040 BKN060 
     TEMPO 1417/1420 29018G30KT 6000 -SHRA SCT010 BKN025TCU 
     BECMG 1419/1421 26008KT 9999 NSW FEW040 BKN070 BY ETGL